createdAt,value
2023-01-21T00:02:17.333Z,18.42
2023-01-21T00:04:43.646Z,18.30
2023-01-21T00:07:09.885Z,19.20
2023-01-21T00:09:36.163Z,16.83
2023-01-21T00:12:02.894Z,17.75
2023-01-21T00:14:29.616Z,18.83
2023-01-21T00:16:56.013Z,18.55
2023-01-21T00:19:22.288Z,18.92
2023-01-21T00:21:48.563Z,18.92
2023-01-21T00:24:14.825Z,16.60
2023-01-21T00:26:41.033Z,18.92
2023-01-21T00:29:07.482Z,18.27
2023-01-21T00:31:34.026Z,18.17
2023-01-21T00:34:00.279Z,19.05
2023-01-21T00:36:29.570Z,19.30
2023-01-21T00:38:56.327Z,18.73
2023-01-21T00:41:24.369Z,18.48
2023-01-21T00:43:50.563Z,18.83
2023-01-21T00:46:16.854Z,19.08
2023-01-21T00:48:43.066Z,18.65
2023-01-21T00:51:09.796Z,19.17
2023-01-21T00:53:37.973Z,19.05
2023-01-21T00:56:05.239Z,18.80
2023-01-21T00:58:32.157Z,18.92
2023-01-21T01:01:01.736Z,18.25
2023-01-21T01:03:28.213Z,17.95
2023-01-21T01:05:54.429Z,19.48
2023-01-21T01:08:20.649Z,18.45
2023-01-21T01:10:46.874Z,17.27
2023-01-21T01:13:13.066Z,18.25
2023-01-21T01:15:39.478Z,18.27
2023-01-21T01:18:05.755Z,17.13
2023-01-21T01:20:31.997Z,17.15
2023-01-21T01:22:58.206Z,16.30
2023-01-21T01:25:24.445Z,18.05
2023-01-21T01:27:50.658Z,17.05
2023-01-21T01:30:17.270Z,18.50
2023-01-21T01:32:43.675Z,19.02
2023-01-21T01:35:09.867Z,18.55
2023-01-21T01:37:36.078Z,18.02
2023-01-21T01:40:02.312Z,18.85
2023-01-21T01:42:28.516Z,17.30
2023-01-21T01:44:59.103Z,19.33
2023-01-21T01:47:37.276Z,17.20
2023-01-21T01:50:04.961Z,18.63
2023-01-21T01:52:31.405Z,17.30
2023-01-21T01:54:59.035Z,24.02
2023-01-21T01:57:28.408Z,18.05
2023-01-21T01:59:54.713Z,18.38
2023-01-21T02:02:21.019Z,18.73
2023-01-21T02:04:49.891Z,18.65
2023-01-21T02:07:17.152Z,18.88
2023-01-21T02:09:43.404Z,16.73
2023-01-21T02:12:09.664Z,17.55
2023-01-21T02:14:42.657Z,17.70
2023-01-21T02:17:24.109Z,18.40
2023-01-21T02:20:08.798Z,17.50
2023-01-21T02:22:49.468Z,18.13
2023-01-21T02:25:34.633Z,16.83
2023-01-21T02:28:18.721Z,17.52
2023-01-21T02:31:02.038Z,18.60
2023-01-21T02:33:43.748Z,16.27
2023-01-21T02:36:28.625Z,15.90
2023-01-21T02:38:57.579Z,16.38
2023-01-21T02:41:23.780Z,17.73
2023-01-21T02:43:49.965Z,17.50
2023-01-21T02:46:23.411Z,17.08
2023-01-21T02:49:11.114Z,16.70
2023-01-21T02:51:37.350Z,16.90
2023-01-21T02:54:26.902Z,17.35
2023-01-21T02:56:53.080Z,16.30
2023-01-21T02:59:19.274Z,16.52
2023-01-21T03:01:50.986Z,16.27
2023-01-21T03:04:28.877Z,17.02
2023-01-21T03:07:01.215Z,16.40
2023-01-21T03:09:31.993Z,16.33
2023-01-21T03:12:01.189Z,15.82
2023-01-21T03:15:00.835Z,18.50
2023-01-21T03:17:35.444Z,15.57
2023-01-21T03:20:08.128Z,16.05
2023-01-21T03:22:35.478Z,16.88
2023-01-21T03:25:04.103Z,15.25
2023-01-21T03:27:31.795Z,16.60
2023-01-21T03:30:00.277Z,15.68
2023-01-21T03:32:28.622Z,17.50
2023-01-21T03:34:55.787Z,17.00
2023-01-21T03:37:25.531Z,15.73
2023-01-21T03:39:55.456Z,17.25
2023-01-21T03:42:22.706Z,16.38
2023-01-21T03:44:48.947Z,16.75
2023-01-21T03:47:25.197Z,15.60
2023-01-21T03:50:09.403Z,16.45
2023-01-21T03:52:38.358Z,16.13
2023-01-21T03:55:05.021Z,15.57
2023-01-21T03:57:31.316Z,14.77
2023-01-21T03:59:57.597Z,15.40
2023-01-21T04:02:23.885Z,15.63
2023-01-21T04:04:51.459Z,16.38
2023-01-21T04:07:17.671Z,16.98
2023-01-21T04:09:43.952Z,15.40
2023-01-21T04:12:10.236Z,15.25
2023-01-21T04:14:36.439Z,16.23
2023-01-21T04:17:02.709Z,15.68
2023-01-21T04:19:29.061Z,15.35
2023-01-21T04:21:55.295Z,15.82
2023-01-21T04:24:21.621Z,15.65
2023-01-21T04:26:47.846Z,15.15
2023-01-21T04:29:14.158Z,15.93
2023-01-21T04:31:40.473Z,15.10
2023-01-21T04:34:06.697Z,16.00
2023-01-21T04:36:32.905Z,15.63
2023-01-21T04:38:59.161Z,14.57
2023-01-21T04:41:25.666Z,14.88
2023-01-21T04:43:51.911Z,15.80
2023-01-21T04:46:18.152Z,16.67
2023-01-21T04:48:44.393Z,15.10
2023-01-21T04:51:10.646Z,16.65
2023-01-21T04:53:36.878Z,16.35
2023-01-21T04:56:03.249Z,17.40
2023-01-21T04:58:29.514Z,17.63
2023-01-21T05:00:55.903Z,16.23
2023-01-21T05:03:22.124Z,17.35
2023-01-21T05:05:48.347Z,17.80
2023-01-21T05:08:14.624Z,15.93
2023-01-21T05:10:40.839Z,16.83
2023-01-21T05:13:07.041Z,17.55
2023-01-21T05:15:33.301Z,17.50
2023-01-21T05:18:00.425Z,16.92
2023-01-21T05:20:26.652Z,16.42
2023-01-21T05:22:52.854Z,16.52
2023-01-21T05:25:19.068Z,16.92
2023-01-21T05:27:50.628Z,15.52
2023-01-21T05:30:17.061Z,17.10
2023-01-21T05:32:43.352Z,16.17
2023-01-21T05:35:09.855Z,15.05
2023-01-21T05:37:36.069Z,16.13
2023-01-21T05:40:02.297Z,16.55
2023-01-21T05:42:28.496Z,16.55
2023-01-21T05:44:54.752Z,17.42
2023-01-21T05:47:20.932Z,17.13
2023-01-21T05:49:47.153Z,17.10
2023-01-21T05:52:13.406Z,16.65
2023-01-21T05:54:52.498Z,14.85
2023-01-21T05:57:25.826Z,16.80
2023-01-21T05:59:52.043Z,17.02
2023-01-21T06:02:18.312Z,17.42
2023-01-21T06:04:44.541Z,17.15
2023-01-21T06:07:10.801Z,16.83
2023-01-21T06:09:37.026Z,16.88
2023-01-21T06:12:03.275Z,16.30
2023-01-21T06:14:29.512Z,17.33
2023-01-21T06:16:55.692Z,16.77
2023-01-21T06:19:22.014Z,17.23
2023-01-21T06:21:48.489Z,17.20
2023-01-21T06:24:15.009Z,16.80
2023-01-21T06:26:41.283Z,17.38
2023-01-21T06:29:07.493Z,18.02
2023-01-21T06:31:33.767Z,17.30
2023-01-21T06:34:00.059Z,17.20
2023-01-21T06:36:26.288Z,15.68
2023-01-21T06:38:52.545Z,17.05
2023-01-21T06:41:18.756Z,16.80
2023-01-21T06:43:45.028Z,17.17
2023-01-21T06:46:11.365Z,16.48
2023-01-21T06:48:37.595Z,15.95
2023-01-21T06:51:03.980Z,15.52
2023-01-21T06:53:30.305Z,18.10
2023-01-21T06:55:56.539Z,17.20
2023-01-21T06:58:22.741Z,16.98
2023-01-21T07:00:48.928Z,16.48
2023-01-21T07:03:15.151Z,18.15
2023-01-21T07:05:41.506Z,15.95
2023-01-21T07:08:07.734Z,16.67
2023-01-21T07:10:34.059Z,16.25
2023-01-21T07:13:00.291Z,17.05
2023-01-21T07:15:30.726Z,14.73
2023-01-21T07:17:57.178Z,17.10
2023-01-21T07:20:23.386Z,16.90
2023-01-21T07:22:49.582Z,16.92
2023-01-21T07:25:16.009Z,16.83
2023-01-21T07:27:42.431Z,17.55
2023-01-21T07:30:09.927Z,17.58
2023-01-21T07:32:36.137Z,16.42
2023-01-21T07:35:02.337Z,17.58
2023-01-21T07:37:28.696Z,16.60
2023-01-21T07:39:55.845Z,17.27
2023-01-21T07:42:22.162Z,16.02
2023-01-21T07:44:48.439Z,17.77
2023-01-21T07:47:14.621Z,18.45
2023-01-21T07:49:41.386Z,17.42
2023-01-21T07:52:07.616Z,18.67
2023-01-21T07:54:33.919Z,18.98
2023-01-21T07:57:00.176Z,18.05
2023-01-21T07:59:26.387Z,17.48
2023-01-21T08:01:52.857Z,18.65
2023-01-21T08:04:19.226Z,19.70
2023-01-21T08:06:45.430Z,18.73
2023-01-21T08:09:11.698Z,18.48
2023-01-21T08:11:37.907Z,18.55
2023-01-21T08:14:04.125Z,19.65
2023-01-21T08:16:30.459Z,19.17
2023-01-21T08:18:56.676Z,19.35
2023-01-21T08:21:22.944Z,18.88
2023-01-21T08:23:49.151Z,20.30
2023-01-21T08:26:15.388Z,20.27
2023-01-21T08:28:41.656Z,20.25
2023-01-21T08:31:10.160Z,20.63
2023-01-21T08:33:37.087Z,21.38
2023-01-21T08:36:05.927Z,21.50
2023-01-21T08:38:32.793Z,21.13
2023-01-21T08:40:59.013Z,21.42
2023-01-21T08:43:25.747Z,22.20
2023-01-21T08:45:52.209Z,21.15
2023-01-21T08:48:18.855Z,21.77
2023-01-21T08:50:45.146Z,23.77
2023-01-21T08:53:11.786Z,22.33
2023-01-21T08:55:38.088Z,22.80
2023-01-21T08:58:04.347Z,22.77
2023-01-21T09:00:30.804Z,24.75
2023-01-21T09:02:58.350Z,24.52
2023-01-21T09:05:24.590Z,24.90
2023-01-21T09:07:50.829Z,24.35
2023-01-21T09:10:37.731Z,25.05
2023-01-21T09:13:04.718Z,24.40
2023-01-21T09:15:31.497Z,23.52
2023-01-21T09:17:57.785Z,20.90
2023-01-21T09:20:24.041Z,21.95
2023-01-21T09:22:50.251Z,22.20
2023-01-21T09:25:16.763Z,21.80
2023-01-21T09:27:43.225Z,21.73
2023-01-21T09:30:09.725Z,21.92
2023-01-21T09:32:35.975Z,22.58
2023-01-21T09:35:02.277Z,21.83
2023-01-21T09:37:28.659Z,22.38
2023-01-21T09:39:54.909Z,22.70
2023-01-21T09:42:23.657Z,22.00
2023-01-21T09:44:51.449Z,22.50
2023-01-21T09:47:26.045Z,22.80
2023-01-21T09:49:53.713Z,23.27
2023-01-21T09:52:39.998Z,25.13
2023-01-21T09:55:12.024Z,22.60
2023-01-21T09:58:10.691Z,23.95
2023-01-21T10:00:41.504Z,22.35
2023-01-21T10:03:26.396Z,24.13
2023-01-21T10:05:52.609Z,23.30
2023-01-21T10:08:18.791Z,23.83
2023-01-21T10:10:51.262Z,23.17
2023-01-21T10:13:32.613Z,23.92
2023-01-21T10:16:13.966Z,23.08
2023-01-21T10:18:42.221Z,21.40
2023-01-21T10:21:26.999Z,21.73
2023-01-21T10:23:59.322Z,21.30
2023-01-21T10:26:26.936Z,20.85
2023-01-21T10:28:54.596Z,21.88
2023-01-21T10:31:23.613Z,22.83
2023-01-21T10:33:49.949Z,21.98
2023-01-21T10:36:25.062Z,21.70
2023-01-21T10:38:54.346Z,22.35
2023-01-21T10:41:26.349Z,24.27
2023-01-21T10:44:05.880Z,23.75
2023-01-21T10:46:42.181Z,22.08
2023-01-21T10:49:20.835Z,23.20
2023-01-21T10:52:03.587Z,22.98
2023-01-21T10:54:50.155Z,24.40
2023-01-21T10:57:34.944Z,23.83
2023-01-21T11:00:02.527Z,22.42
2023-01-21T11:02:32.759Z,22.48
2023-01-21T11:05:02.075Z,23.38
2023-01-21T11:07:31.822Z,23.05
2023-01-21T11:09:58.476Z,21.70
2023-01-21T11:12:26.894Z,21.40
2023-01-21T11:15:01.860Z,20.70
2023-01-21T11:17:32.704Z,19.70
2023-01-21T11:20:00.486Z,21.92
2023-01-21T11:22:29.508Z,22.10
2023-01-21T11:24:55.768Z,20.15
2023-01-21T11:27:31.024Z,18.63
2023-01-21T11:29:57.262Z,18.33
2023-01-21T11:32:24.585Z,19.40
2023-01-21T11:34:52.035Z,18.65
2023-01-21T11:37:21.601Z,18.73
2023-01-21T11:39:51.218Z,18.58
2023-01-21T11:42:18.584Z,18.23
2023-01-21T11:44:55.095Z,19.48
2023-01-21T11:47:28.732Z,19.30
2023-01-21T11:49:54.947Z,16.52
2023-01-21T11:52:21.225Z,17.80
2023-01-21T11:54:47.773Z,18.95
2023-01-21T11:57:19.392Z,17.90
2023-01-21T11:59:46.773Z,17.80
2023-01-21T12:02:22.370Z,17.98
2023-01-21T12:04:50.772Z,17.60
2023-01-21T12:07:21.579Z,20.38
2023-01-21T12:09:49.295Z,17.48
2023-01-21T12:12:28.453Z,17.42
2023-01-21T12:14:55.861Z,17.13
2023-01-21T12:17:27.619Z,16.95
2023-01-21T12:20:01.496Z,17.92
2023-01-21T12:22:34.398Z,15.75
2023-01-21T12:25:10.503Z,14.35
2023-01-21T12:27:39.470Z,14.63
2023-01-21T12:30:16.961Z,14.30
2023-01-21T12:32:46.259Z,13.95
2023-01-21T12:35:15.947Z,13.15
2023-01-21T12:37:48.313Z,14.95
2023-01-21T12:40:20.114Z,13.73
2023-01-21T12:42:48.411Z,13.25
2023-01-21T12:45:17.790Z,13.48
2023-01-21T12:47:52.968Z,13.48
2023-01-21T12:50:30.826Z,13.60
2023-01-21T12:53:09.092Z,12.82
2023-01-21T12:55:54.716Z,14.63
2023-01-21T12:58:21.832Z,12.70
2023-01-21T13:00:50.111Z,11.48
2023-01-21T13:03:35.193Z,11.80
2023-01-21T13:06:20.475Z,11.05
2023-01-21T13:09:11.591Z,10.55
2023-01-21T13:11:44.241Z,10.73
2023-01-21T13:14:10.423Z,11.07
2023-01-21T13:16:40.862Z,12.65
2023-01-21T13:19:09.971Z,11.67
2023-01-21T13:22:03.481Z,11.95
2023-01-21T13:24:34.099Z,11.43
2023-01-21T13:27:11.885Z,11.68
2023-01-21T13:29:38.141Z,12.48
2023-01-21T13:32:23.092Z,12.13
2023-01-21T13:34:52.365Z,11.98
2023-01-21T13:37:33.211Z,11.98
2023-01-21T13:40:18.342Z,12.23
2023-01-21T13:43:02.024Z,12.27
2023-01-21T13:45:28.383Z,12.15
2023-01-21T13:48:00.643Z,11.93
2023-01-21T13:50:29.837Z,11.40
2023-01-21T13:53:08.581Z,13.02
2023-01-21T13:55:46.769Z,12.55
2023-01-21T13:58:14.716Z,12.27
2023-01-21T14:00:44.470Z,12.35
2023-01-21T14:03:16.408Z,15.65
2023-01-21T14:05:42.588Z,15.02
2023-01-21T14:08:14.793Z,14.90
2023-01-21T14:11:00.352Z,20.25
2023-01-21T14:13:32.571Z,16.73
2023-01-21T14:15:59.262Z,14.45
2023-01-21T14:18:44.989Z,15.27
2023-01-21T14:21:11.181Z,15.30
2023-01-21T14:23:49.791Z,15.05
2023-01-21T14:26:35.049Z,16.73
2023-01-21T14:29:09.749Z,17.13
2023-01-21T14:31:39.176Z,15.75
2023-01-21T14:34:21.161Z,16.55
2023-01-21T14:36:59.571Z,18.40
2023-01-21T14:39:44.136Z,17.42
2023-01-21T14:42:12.474Z,18.33
2023-01-21T14:44:40.390Z,18.80
2023-01-21T14:47:15.863Z,18.05
2023-01-21T14:49:46.443Z,16.88
2023-01-21T14:52:42.337Z,17.35
2023-01-21T14:55:25.608Z,17.45
2023-01-21T14:57:52.342Z,18.95
2023-01-21T15:00:18.532Z,17.02
2023-01-21T15:02:45.890Z,18.40
2023-01-21T15:05:17.598Z,19.23
2023-01-21T15:07:45.786Z,18.63
2023-01-21T15:10:17.644Z,18.60
2023-01-21T15:12:49.070Z,17.90
2023-01-21T15:17:53.931Z,18.15
2023-01-21T15:20:39.638Z,16.88
2023-01-21T15:23:20.297Z,16.98
2023-01-21T15:26:01.652Z,17.38
2023-01-21T15:28:46.074Z,17.27
2023-01-21T15:31:32.627Z,15.75
2023-01-21T15:34:00.569Z,16.40
2023-01-21T15:36:31.111Z,15.45
2023-01-21T15:39:02.074Z,15.95
2023-01-21T15:41:28.807Z,14.73
2023-01-21T15:44:16.884Z,15.57
2023-01-21T15:46:55.210Z,15.73
2023-01-21T15:49:33.494Z,15.85
2023-01-21T15:52:18.549Z,15.40
2023-01-21T15:54:44.747Z,15.02
2023-01-21T15:57:16.820Z,15.18
2023-01-21T15:59:49.024Z,15.05
2023-01-21T16:02:31.697Z,16.55
2023-01-21T16:04:57.953Z,15.68
2023-01-21T16:07:26.989Z,16.77
2023-01-21T16:09:53.244Z,20.35
2023-01-21T16:12:38.326Z,16.60
2023-01-21T16:15:10.548Z,17.33
2023-01-21T16:17:58.079Z,17.20
2023-01-21T16:20:24.634Z,17.60
2023-01-21T16:22:53.090Z,17.17
2023-01-21T16:25:21.053Z,17.15
2023-01-21T16:27:47.792Z,16.95
2023-01-21T16:30:20.341Z,16.52
2023-01-21T16:32:47.000Z,17.70
2023-01-21T16:35:13.428Z,16.38
2023-01-21T16:37:39.682Z,14.70
2023-01-21T16:40:08.962Z,16.45
2023-01-21T16:42:36.575Z,15.68
2023-01-21T16:45:15.216Z,16.70
2023-01-21T16:47:41.783Z,16.95
2023-01-21T16:50:18.297Z,14.73
2023-01-21T16:52:44.539Z,13.80
2023-01-21T16:55:18.457Z,13.63
2023-01-21T16:57:48.349Z,13.15
2023-01-21T17:00:30.856Z,13.20
2023-01-21T17:02:57.753Z,12.25
2023-01-21T17:05:28.487Z,11.60
2023-01-21T17:07:56.852Z,12.88
2023-01-21T17:10:34.889Z,12.40
2023-01-21T17:13:05.794Z,12.25
2023-01-21T17:15:36.082Z,13.02
2023-01-21T17:18:02.806Z,12.27
2023-01-21T17:20:37.362Z,13.45
2023-01-21T17:23:04.603Z,13.63
2023-01-21T17:25:31.367Z,13.18
2023-01-21T17:27:57.642Z,12.02
2023-01-21T17:30:33.226Z,13.30
2023-01-21T17:33:00.721Z,12.82
2023-01-21T17:35:28.215Z,12.98
2023-01-21T17:37:56.528Z,12.30
2023-01-21T17:40:24.211Z,12.45
2023-01-21T17:42:50.738Z,13.18
2023-01-21T17:45:28.267Z,13.75
2023-01-21T17:48:08.562Z,13.40
2023-01-21T17:50:36.661Z,12.88
2023-01-21T17:53:04.515Z,14.38
2023-01-21T17:55:32.337Z,14.00
2023-01-21T17:58:04.308Z,13.60
2023-01-21T18:00:34.684Z,13.20
2023-01-21T18:03:00.945Z,13.00
2023-01-21T18:05:28.445Z,14.15
2023-01-21T18:07:54.894Z,14.65
2023-01-21T18:10:24.167Z,14.48
2023-01-21T18:12:50.486Z,14.50
2023-01-21T18:15:19.499Z,15.25
2023-01-21T18:17:51.600Z,14.82
2023-01-21T18:20:19.570Z,14.02
2023-01-21T18:22:46.367Z,14.93
2023-01-21T18:25:13.375Z,14.68
2023-01-21T18:27:40.599Z,16.05
2023-01-21T18:30:14.366Z,13.60
2023-01-21T18:32:42.626Z,14.65
2023-01-21T18:35:09.435Z,14.48
2023-01-21T18:37:35.672Z,15.00
2023-01-21T18:40:02.296Z,14.18
2023-01-21T18:42:28.518Z,14.30
2023-01-21T18:44:54.711Z,14.10
2023-01-21T18:47:22.386Z,15.30
2023-01-21T18:49:50.692Z,13.38
2023-01-21T18:52:17.790Z,13.88
2023-01-21T18:54:44.107Z,14.63
2023-01-21T18:57:11.915Z,13.63
2023-01-21T18:59:38.117Z,14.23
2023-01-21T19:02:06.044Z,14.18
2023-01-21T19:04:32.331Z,12.40
2023-01-21T19:06:58.595Z,14.20
2023-01-21T19:09:25.466Z,13.65
2023-01-21T19:11:52.200Z,12.93
2023-01-21T19:14:18.577Z,13.05
2023-01-21T19:16:45.243Z,13.45
2023-01-21T19:19:12.284Z,13.43
2023-01-21T19:21:38.823Z,13.40
2023-01-21T19:24:11.027Z,13.30
2023-01-21T19:26:38.055Z,12.75
2023-01-21T19:29:04.655Z,14.23
2023-01-21T19:31:32.072Z,14.00
2023-01-21T19:33:58.349Z,14.57
2023-01-21T19:36:25.599Z,14.13
2023-01-21T19:38:55.789Z,13.68
2023-01-21T19:41:22.305Z,15.15
2023-01-21T19:43:48.579Z,15.27
2023-01-21T19:46:14.877Z,15.00
2023-01-21T19:48:41.227Z,15.27
2023-01-21T19:51:07.495Z,13.80
2023-01-21T19:53:33.784Z,16.23
2023-01-21T19:56:00.509Z,15.65
2023-01-21T19:58:28.080Z,15.95
2023-01-21T20:00:54.511Z,16.02
2023-01-21T20:03:22.582Z,15.65
2023-01-21T20:05:51.195Z,15.55
2023-01-21T20:08:19.618Z,15.65
2023-01-21T20:10:45.983Z,17.13
2023-01-21T20:13:12.963Z,17.38
2023-01-21T20:15:39.690Z,16.05
2023-01-21T20:18:06.682Z,17.00
2023-01-21T20:20:33.444Z,16.05
2023-01-21T20:23:00.542Z,16.98
2023-01-21T20:25:36.069Z,17.23
2023-01-21T20:28:03.465Z,15.82
2023-01-21T20:30:30.872Z,16.75
2023-01-21T20:32:57.882Z,17.27
2023-01-21T20:35:26.853Z,18.27
2023-01-21T20:37:54.331Z,17.17
2023-01-21T20:40:20.640Z,17.27
2023-01-21T20:42:47.617Z,17.20
2023-01-21T20:45:14.616Z,18.08
2023-01-21T20:47:50.110Z,18.98
2023-01-21T20:50:18.379Z,19.05
2023-01-21T20:52:44.938Z,18.75
2023-01-21T20:55:11.632Z,18.08
2023-01-21T20:57:37.916Z,17.95
2023-01-21T21:00:05.268Z,18.08
2023-01-21T21:02:31.600Z,18.35
2023-01-21T21:04:57.827Z,18.10
2023-01-21T21:07:26.429Z,19.10
2023-01-21T21:09:56.935Z,18.98
2023-01-21T21:12:23.863Z,19.08
2023-01-21T21:14:50.049Z,19.33
2023-01-21T21:17:16.262Z,18.58
2023-01-21T21:19:42.483Z,20.13
2023-01-21T21:22:08.757Z,19.17
2023-01-21T21:24:34.977Z,18.83
2023-01-21T21:27:01.240Z,19.13
2023-01-21T21:29:27.748Z,18.63
2023-01-21T21:31:54.068Z,19.38
2023-01-21T21:34:23.689Z,20.50
2023-01-21T21:36:49.974Z,21.10
2023-01-21T21:39:19.204Z,19.80
2023-01-21T21:42:04.208Z,19.55
2023-01-21T21:44:30.536Z,20.58
2023-01-21T21:47:15.534Z,21.42
2023-01-21T21:49:41.770Z,20.80
2023-01-21T21:52:08.001Z,22.02
2023-01-21T21:54:34.216Z,22.45
2023-01-21T21:57:00.445Z,21.52
2023-01-21T21:59:26.695Z,22.13
2023-01-21T22:01:53.000Z,22.58
2023-01-21T22:04:21.039Z,22.13
2023-01-21T22:06:47.320Z,21.73
2023-01-21T22:09:13.581Z,22.45
2023-01-21T22:11:39.800Z,22.80
2023-01-21T22:14:06.097Z,22.67
2023-01-21T22:16:32.612Z,22.35
2023-01-21T22:18:59.967Z,22.23
2023-01-21T22:21:32.026Z,23.20
2023-01-21T22:23:58.531Z,24.63
2023-01-21T22:26:25.752Z,22.00
2023-01-21T22:28:52.032Z,23.30
2023-01-21T22:31:23.065Z,23.35
2023-01-21T22:33:49.744Z,22.73
2023-01-21T22:36:17.191Z,21.88
2023-01-21T22:38:43.864Z,23.63
2023-01-21T22:41:11.374Z,24.63
2023-01-21T22:43:38.709Z,23.70
2023-01-21T22:46:05.035Z,23.15
2023-01-21T22:48:31.492Z,23.58
2023-01-21T22:50:59.106Z,24.95
2023-01-21T22:53:25.849Z,23.38
2023-01-21T22:55:58.096Z,22.20
2023-01-21T22:58:25.007Z,23.40
2023-01-21T23:00:52.607Z,23.90
2023-01-21T23:03:19.339Z,23.35
2023-01-21T23:05:45.639Z,23.48
2023-01-21T23:08:12.328Z,21.85
2023-01-21T23:10:41.489Z,22.45
2023-01-21T23:13:08.255Z,22.20
2023-01-21T23:15:34.516Z,38.05
2023-01-21T23:18:00.835Z,22.30
2023-01-21T23:20:28.750Z,22.63
2023-01-21T23:22:56.300Z,22.63
2023-01-21T23:25:22.518Z,21.88
2023-01-21T23:27:48.756Z,21.50
2023-01-21T23:30:15.649Z,23.27
2023-01-21T23:32:42.082Z,21.40
2023-01-21T23:35:08.505Z,21.58
2023-01-21T23:37:35.203Z,20.90
2023-01-21T23:40:01.469Z,20.63
2023-01-21T23:42:27.707Z,20.80
2023-01-21T23:44:53.904Z,21.02
2023-01-21T23:47:20.194Z,20.98
2023-01-21T23:49:46.482Z,20.23
2023-01-21T23:52:12.708Z,19.23
2023-01-21T23:54:39.485Z,20.13
2023-01-21T23:57:05.857Z,20.23
2023-01-21T23:59:32.093Z,20.35
